Aviation Digital Data Service (ADDS)

Output produced by METARs form (0029 UTC 19 October 2019)
found at http://www.aviationweather.gov/metar/data/
 
Forecast for: KBUR (BURBANK , CA, US)
Text: KBUR 182336Z 1900/1924 17009KT P6SM SKC
Forecast period: 0000 to 0300 UTC 19 October 2019
Forecast type: FROM: standard forecast or significant change
Winds: from the S (170 degrees) at 10 MPH (9 knots; 4.6 m/s)
Visibility: 6 or more miles 10+ km)
Clouds: clear skies
Weather: no significant weather forecast for this period
Text: FM190300 VRB03KT P6SM SKC
Forecast period: 0300 to 1900 UTC 19 October 2019
Forecast type: FROM: standard forecast or significant change
Winds: variable direction winds at 3 MPH (3 knots; 1.5 m/s)
Visibility: 6 or more miles 10+ km)
Clouds: clear skies
Weather: no significant weather forecast for this period
Text: FM191900 10006KT P6SM SKC
Forecast period: 1900 to 2200 UTC 19 October 2019
Forecast type: FROM: standard forecast or significant change
Winds: from the E (100 degrees) at 7 MPH (6 knots; 3.1 m/s)
Visibility: 6 or more miles 10+ km)
Clouds: clear skies
Weather: no significant weather forecast for this period
Text: FM192200 16009KT P6SM SKC
Forecast period: 2200 UTC 19 October 2019 to 0000 UTC 20 October 2019
Forecast type: FROM: standard forecast or significant change
Winds: from the SSE (160 degrees) at 10 MPH (9 knots; 4.6 m/s)
Visibility: 6 or more miles 10+ km)
Clouds: clear skies
Weather: no significant weather forecast for this period